sensor_id;sensor_type;location;lat;lon;timestamp;temperature;humidity
18460;DHT22;9359;50.932;6.924;2024-01-07T00:01:49;15.00;99.90
18460;DHT22;9359;50.932;6.924;2024-01-07T00:04:20;15.00;99.90
18460;DHT22;9359;50.932;6.924;2024-01-07T00:06:50;15.00;99.90
18460;DHT22;9359;50.932;6.924;2024-01-07T00:09:21;15.00;99.90
18460;DHT22;9359;50.932;6.924;2024-01-07T00:11:51;15.00;99.90
18460;DHT22;9359;50.932;6.924;2024-01-07T00:14:22;15.00;99.90
18460;DHT22;9359;50.932;6.924;2024-01-07T00:16:54;15.00;99.90
18460;DHT22;9359;50.932;6.924;2024-01-07T00:19:24;15.00;99.90
18460;DHT22;9359;50.932;6.924;2024-01-07T00:21:55;14.90;99.90
18460;DHT22;9359;50.932;6.924;2024-01-07T00:24:26;14.90;99.90
18460;DHT22;9359;50.932;6.924;2024-01-07T00:26:56;15.00;99.90
18460;DHT22;9359;50.932;6.924;2024-01-07T00:29:27;14.90;99.90
18460;DHT22;9359;50.932;6.924;2024-01-07T00:32:00;14.90;99.90
18460;DHT22;9359;50.932;6.924;2024-01-07T00:34:30;15.00;99.90
18460;DHT22;9359;50.932;6.924;2024-01-07T00:37:01;15.00;99.90
18460;DHT22;9359;50.932;6.924;2024-01-07T00:39:31;14.90;99.90
18460;DHT22;9359;50.932;6.924;2024-01-07T00:42:01;14.90;99.90
18460;DHT22;9359;50.932;6.924;2024-01-07T00:44:32;14.90;99.90
18460;DHT22;9359;50.932;6.924;2024-01-07T00:47:04;14.90;99.90
18460;DHT22;9359;50.932;6.924;2024-01-07T00:49:35;14.90;99.90
18460;DHT22;9359;50.932;6.924;2024-01-07T00:52:07;14.90;99.90
18460;DHT22;9359;50.932;6.924;2024-01-07T00:54:38;14.90;99.90
18460;DHT22;9359;50.932;6.924;2024-01-07T00:57:10;14.90;99.90
18460;DHT22;9359;50.932;6.924;2024-01-07T00:59:40;14.90;99.90
18460;DHT22;9359;50.932;6.924;2024-01-07T01:02:12;14.90;99.90
18460;DHT22;9359;50.932;6.924;2024-01-07T01:04:43;14.90;99.90
18460;DHT22;9359;50.932;6.924;2024-01-07T01:07:13;14.90;99.90
18460;DHT22;9359;50.932;6.924;2024-01-07T01:09:44;14.90;99.90
18460;DHT22;9359;50.932;6.924;2024-01-07T01:12:14;14.90;99.90
18460;DHT22;9359;50.932;6.924;2024-01-07T01:14:44;14.90;99.90
18460;DHT22;9359;50.932;6.924;2024-01-07T01:17:16;14.90;99.90
18460;DHT22;9359;50.932;6.924;2024-01-07T01:19:47;14.90;99.90
18460;DHT22;9359;50.932;6.924;2024-01-07T01:22:17;14.90;99.90
18460;DHT22;9359;50.932;6.924;2024-01-07T01:24:48;14.90;99.90
18460;DHT22;9359;50.932;6.924;2024-01-07T01:27:20;14.90;99.90
18460;DHT22;9359;50.932;6.924;2024-01-07T01:29:51;14.90;99.90
18460;DHT22;9359;50.932;6.924;2024-01-07T01:32:23;14.80;99.90
18460;DHT22;9359;50.932;6.924;2024-01-07T01:34:53;14.80;99.90
18460;DHT22;9359;50.932;6.924;2024-01-07T01:37:23;14.80;99.90
18460;DHT22;9359;50.932;6.924;2024-01-07T01:39:54;14.80;99.90
18460;DHT22;9359;50.932;6.924;2024-01-07T01:42:24;14.80;99.90
18460;DHT22;9359;50.932;6.924;2024-01-07T01:44:54;14.90;99.90
18460;DHT22;9359;50.932;6.924;2024-01-07T01:47:29;14.80;99.90
18460;DHT22;9359;50.932;6.924;2024-01-07T01:50:00;14.80;99.90
18460;DHT22;9359;50.932;6.924;2024-01-07T01:52:30;14.90;99.90
18460;DHT22;9359;50.932;6.924;2024-01-07T01:55:02;14.90;99.90
18460;DHT22;9359;50.932;6.924;2024-01-07T01:57:34;14.90;99.90
18460;DHT22;9359;50.932;6.924;2024-01-07T02:00:05;14.80;99.90
18460;DHT22;9359;50.932;6.924;2024-01-07T02:02:38;14.90;99.90
18460;DHT22;9359;50.932;6.924;2024-01-07T02:05:09;14.90;99.90
18460;DHT22;9359;50.932;6.924;2024-01-07T02:07:41;14.90;99.90
18460;DHT22;9359;50.932;6.924;2024-01-07T02:10:14;14.90;99.90
18460;DHT22;9359;50.932;6.924;2024-01-07T02:12:45;14.80;99.90
18460;DHT22;9359;50.932;6.924;2024-01-07T02:15:15;14.80;99.90
18460;DHT22;9359;50.932;6.924;2024-01-07T02:17:48;14.90;99.90
18460;DHT22;9359;50.932;6.924;2024-01-07T02:20:18;14.90;99.90
18460;DHT22;9359;50.932;6.924;2024-01-07T02:22:49;14.90;99.90
18460;DHT22;9359;50.932;6.924;2024-01-07T02:25:21;14.80;99.90
18460;DHT22;9359;50.932;6.924;2024-01-07T02:27:51;14.90;99.90
18460;DHT22;9359;50.932;6.924;2024-01-07T02:30:22;14.90;99.90
18460;DHT22;9359;50.932;6.924;2024-01-07T02:32:52;14.90;99.90
18460;DHT22;9359;50.932;6.924;2024-01-07T02:35:22;14.80;99.90
18460;DHT22;9359;50.932;6.924;2024-01-07T02:37:53;14.80;99.90
18460;DHT22;9359;50.932;6.924;2024-01-07T02:40:25;14.90;99.90
18460;DHT22;9359;50.932;6.924;2024-01-07T02:42:55;14.80;99.90
18460;DHT22;9359;50.932;6.924;2024-01-07T02:45:26;14.90;99.90
18460;DHT22;9359;50.932;6.924;2024-01-07T02:47:56;14.80;99.90
18460;DHT22;9359;50.932;6.924;2024-01-07T02:50:27;14.80;99.90
18460;DHT22;9359;50.932;6.924;2024-01-07T02:52:57;14.80;99.90
18460;DHT22;9359;50.932;6.924;2024-01-07T02:55:29;14.80;99.90
18460;DHT22;9359;50.932;6.924;2024-01-07T02:58:00;14.90;99.90
18460;DHT22;9359;50.932;6.924;2024-01-07T03:00:30;14.80;99.90
18460;DHT22;9359;50.932;6.924;2024-01-07T03:03:00;14.80;99.90
18460;DHT22;9359;50.932;6.924;2024-01-07T03:05:31;14.90;99.90
18460;DHT22;9359;50.932;6.924;2024-01-07T03:08:02;14.80;99.90
18460;DHT22;9359;50.932;6.924;2024-01-07T03:10:34;14.80;99.90
18460;DHT22;9359;50.932;6.924;2024-01-07T03:13:05;14.80;99.90
18460;DHT22;9359;50.932;6.924;2024-01-07T03:15:35;14.80;99.90
18460;DHT22;9359;50.932;6.924;2024-01-07T03:18:06;14.80;99.90
18460;DHT22;9359;50.932;6.924;2024-01-07T03:20:36;14.80;99.90
18460;DHT22;9359;50.932;6.924;2024-01-07T03:23:06;14.80;99.90
18460;DHT22;9359;50.932;6.924;2024-01-07T03:25:39;14.80;99.90
18460;DHT22;9359;50.932;6.924;2024-01-07T03:28:09;14.90;99.90
18460;DHT22;9359;50.932;6.924;2024-01-07T03:30:39;14.80;99.90
18460;DHT22;9359;50.932;6.924;2024-01-07T03:33:10;14.80;99.90
18460;DHT22;9359;50.932;6.924;2024-01-07T03:35:40;14.80;99.90
18460;DHT22;9359;50.932;6.924;2024-01-07T03:38:10;14.80;99.90
18460;DHT22;9359;50.932;6.924;2024-01-07T03:40:43;14.80;99.90
18460;DHT22;9359;50.932;6.924;2024-01-07T03:43:14;14.80;99.90
18460;DHT22;9359;50.932;6.924;2024-01-07T03:45:44;14.90;99.90
18460;DHT22;9359;50.932;6.924;2024-01-07T03:48:17;14.90;99.90
18460;DHT22;9359;50.932;6.924;2024-01-07T03:50:47;14.90;99.90
18460;DHT22;9359;50.932;6.924;2024-01-07T03:53:18;14.90;99.90
18460;DHT22;9359;50.932;6.924;2024-01-07T03:55:50;14.80;99.90
18460;DHT22;9359;50.932;6.924;2024-01-07T03:58:20;14.90;99.90
18460;DHT22;9359;50.932;6.924;2024-01-07T04:00:51;14.90;99.90
18460;DHT22;9359;50.932;6.924;2024-01-07T04:03:21;14.90;99.90
18460;DHT22;9359;50.932;6.924;2024-01-07T04:05:51;14.90;99.90
18460;DHT22;9359;50.932;6.924;2024-01-07T04:08:22;14.90;99.90
18460;DHT22;9359;50.932;6.924;2024-01-07T04:10:54;14.90;99.90
18460;DHT22;9359;50.932;6.924;2024-01-07T04:13:25;14.90;99.90
18460;DHT22;9359;50.932;6.924;2024-01-07T04:15:55;14.90;99.90
18460;DHT22;9359;50.932;6.924;2024-01-07T04:18:26;14.90;99.90
18460;DHT22;9359;50.932;6.924;2024-01-07T04:20:56;14.80;99.90
18460;DHT22;9359;50.932;6.924;2024-01-07T04:23:26;14.90;99.90
18460;DHT22;9359;50.932;6.924;2024-01-07T04:25:59;14.90;99.90
18460;DHT22;9359;50.932;6.924;2024-01-07T04:28:29;14.90;99.90
18460;DHT22;9359;50.932;6.924;2024-01-07T04:30:59;14.90;99.90
18460;DHT22;9359;50.932;6.924;2024-01-07T04:33:30;14.90;99.90
18460;DHT22;9359;50.932;6.924;2024-01-07T04:36:00;14.90;99.90
18460;DHT22;9359;50.932;6.924;2024-01-07T04:38:31;14.90;99.90
18460;DHT22;9359;50.932;6.924;2024-01-07T04:41:03;14.90;99.90
18460;DHT22;9359;50.932;6.924;2024-01-07T04:43:35;14.90;99.90
18460;DHT22;9359;50.932;6.924;2024-01-07T04:46:06;14.90;99.90
18460;DHT22;9359;50.932;6.924;2024-01-07T04:48:38;14.90;99.90
18460;DHT22;9359;50.932;6.924;2024-01-07T04:51:09;14.90;99.90
18460;DHT22;9359;50.932;6.924;2024-01-07T04:53:39;14.90;99.90
18460;DHT22;9359;50.932;6.924;2024-01-07T04:56:11;14.90;99.90
18460;DHT22;9359;50.932;6.924;2024-01-07T04:58:42;14.80;99.90
18460;DHT22;9359;50.932;6.924;2024-01-07T05:01:12;14.90;99.90
18460;DHT22;9359;50.932;6.924;2024-01-07T05:03:43;14.90;99.90
18460;DHT22;9359;50.932;6.924;2024-01-07T05:06:13;14.90;99.90
18460;DHT22;9359;50.932;6.924;2024-01-07T05:08:43;14.90;99.90
18460;DHT22;9359;50.932;6.924;2024-01-07T05:11:16;14.90;99.90
18460;DHT22;9359;50.932;6.924;2024-01-07T05:13:46;14.90;99.90
18460;DHT22;9359;50.932;6.924;2024-01-07T05:16:20;14.90;99.90
18460;DHT22;9359;50.932;6.924;2024-01-07T05:18:50;14.90;99.90
18460;DHT22;9359;50.932;6.924;2024-01-07T05:21:21;14.90;99.90
18460;DHT22;9359;50.932;6.924;2024-01-07T05:23:52;14.90;99.90
18460;DHT22;9359;50.932;6.924;2024-01-07T05:26:24;14.90;99.90
18460;DHT22;9359;50.932;6.924;2024-01-07T05:28:54;14.90;99.90
18460;DHT22;9359;50.932;6.924;2024-01-07T05:31:25;14.90;99.90
18460;DHT22;9359;50.932;6.924;2024-01-07T05:33:55;14.90;99.90
18460;DHT22;9359;50.932;6.924;2024-01-07T05:36:25;14.90;99.90
18460;DHT22;9359;50.932;6.924;2024-01-07T05:38:56;14.90;99.90
18460;DHT22;9359;50.932;6.924;2024-01-07T05:41:28;14.90;99.90
18460;DHT22;9359;50.932;6.924;2024-01-07T05:43:58;14.90;99.90
18460;DHT22;9359;50.932;6.924;2024-01-07T05:46:29;14.90;99.90
18460;DHT22;9359;50.932;6.924;2024-01-07T05:48:59;14.90;99.90
18460;DHT22;9359;50.932;6.924;2024-01-07T05:51:29;14.90;99.90
18460;DHT22;9359;50.932;6.924;2024-01-07T05:54:00;15.00;99.90
18460;DHT22;9359;50.932;6.924;2024-01-07T05:56:33;14.90;99.90
18460;DHT22;9359;50.932;6.924;2024-01-07T05:59:08;14.90;99.90
18460;DHT22;9359;50.932;6.924;2024-01-07T06:01:38;14.90;99.90
18460;DHT22;9359;50.932;6.924;2024-01-07T06:04:08;14.90;99.90
18460;DHT22;9359;50.932;6.924;2024-01-07T06:06:39;14.90;99.90
18460;DHT22;9359;50.932;6.924;2024-01-07T06:09:10;14.90;99.90
18460;DHT22;9359;50.932;6.924;2024-01-07T06:11:42;14.90;99.90
18460;DHT22;9359;50.932;6.924;2024-01-07T06:14:12;15.00;99.90
18460;DHT22;9359;50.932;6.924;2024-01-07T06:16:43;15.00;99.90
18460;DHT22;9359;50.932;6.924;2024-01-07T06:19:13;14.90;99.90
18460;DHT22;9359;50.932;6.924;2024-01-07T06:21:44;15.00;99.90
18460;DHT22;9359;50.932;6.924;2024-01-07T06:24:15;15.00;99.90
18460;DHT22;9359;50.932;6.924;2024-01-07T06:26:47;14.90;99.90
18460;DHT22;9359;50.932;6.924;2024-01-07T06:29:17;14.90;99.90
18460;DHT22;9359;50.932;6.924;2024-01-07T06:31:48;15.00;99.90
18460;DHT22;9359;50.932;6.924;2024-01-07T06:34:19;15.00;99.90
18460;DHT22;9359;50.932;6.924;2024-01-07T06:36:49;15.00;99.90
18460;DHT22;9359;50.932;6.924;2024-01-07T06:40:14;16.00;99.90
18460;DHT22;9359;50.932;6.924;2024-01-07T06:42:45;15.40;99.90
18460;DHT22;9359;50.932;6.924;2024-01-07T06:45:16;15.70;99.90
18460;DHT22;9359;50.932;6.924;2024-01-07T06:47:47;15.80;99.90
18460;DHT22;9359;50.932;6.924;2024-01-07T06:50:17;16.00;99.90
18460;DHT22;9359;50.932;6.924;2024-01-07T06:52:48;16.10;99.90
18460;DHT22;9359;50.932;6.924;2024-01-07T06:55:21;16.10;99.90
18460;DHT22;9359;50.932;6.924;2024-01-07T06:57:51;16.30;99.90
18460;DHT22;9359;50.932;6.924;2024-01-07T07:00:22;16.40;99.90
18460;DHT22;9359;50.932;6.924;2024-01-07T07:02:52;16.60;99.90
18460;DHT22;9359;50.932;6.924;2024-01-07T07:05:23;16.70;99.90
18460;DHT22;9359;50.932;6.924;2024-01-07T07:07:53;16.70;99.90
18460;DHT22;9359;50.932;6.924;2024-01-07T07:10:25;16.80;99.90
18460;DHT22;9359;50.932;6.924;2024-01-07T07:12:56;16.80;99.90
18460;DHT22;9359;50.932;6.924;2024-01-07T07:15:26;16.90;99.90
18460;DHT22;9359;50.932;6.924;2024-01-07T07:17:57;16.90;99.90
18460;DHT22;9359;50.932;6.924;2024-01-07T07:20:27;17.00;99.90
18460;DHT22;9359;50.932;6.924;2024-01-07T07:22:58;17.00;99.90
18460;DHT22;9359;50.932;6.924;2024-01-07T07:25:30;17.10;99.90
18460;DHT22;9359;50.932;6.924;2024-01-07T07:28:00;17.10;99.90
18460;DHT22;9359;50.932;6.924;2024-01-07T07:30:31;17.20;99.90
18460;DHT22;9359;50.932;6.924;2024-01-07T07:33:02;17.20;99.90
18460;DHT22;9359;50.932;6.924;2024-01-07T07:35:33;17.20;99.90
18460;DHT22;9359;50.932;6.924;2024-01-07T07:38:06;17.20;99.90
18460;DHT22;9359;50.932;6.924;2024-01-07T07:40:38;17.10;99.90
18460;DHT22;9359;50.932;6.924;2024-01-07T07:43:09;17.00;99.90
18460;DHT22;9359;50.932;6.924;2024-01-07T07:45:40;16.90;99.90
18460;DHT22;9359;50.932;6.924;2024-01-07T07:48:10;17.00;99.90
18460;DHT22;9359;50.932;6.924;2024-01-07T07:50:41;17.00;99.90
18460;DHT22;9359;50.932;6.924;2024-01-07T07:53:11;17.10;99.90
18460;DHT22;9359;50.932;6.924;2024-01-07T07:55:43;17.20;99.90
18460;DHT22;9359;50.932;6.924;2024-01-07T07:58:14;17.30;99.90
18460;DHT22;9359;50.932;6.924;2024-01-07T08:00:45;17.30;99.90
18460;DHT22;9359;50.932;6.924;2024-01-07T08:03:15;17.30;99.90
18460;DHT22;9359;50.932;6.924;2024-01-07T08:05:46;17.30;99.90
18460;DHT22;9359;50.932;6.924;2024-01-07T08:08:17;17.30;99.90
18460;DHT22;9359;50.932;6.924;2024-01-07T08:10:49;17.40;99.90
18460;DHT22;9359;50.932;6.924;2024-01-07T08:13:20;17.40;99.90
18460;DHT22;9359;50.932;6.924;2024-01-07T08:15:50;17.40;99.90
18460;DHT22;9359;50.932;6.924;2024-01-07T08:18:20;17.40;99.90
18460;DHT22;9359;50.932;6.924;2024-01-07T08:20:51;17.40;99.90
18460;DHT22;9359;50.932;6.924;2024-01-07T08:23:21;17.40;99.90
18460;DHT22;9359;50.932;6.924;2024-01-07T08:25:53;17.50;99.90
18460;DHT22;9359;50.932;6.924;2024-01-07T08:28:23;17.50;99.90
18460;DHT22;9359;50.932;6.924;2024-01-07T08:30:54;17.50;99.90
18460;DHT22;9359;50.932;6.924;2024-01-07T08:33:24;17.50;99.90
18460;DHT22;9359;50.932;6.924;2024-01-07T08:35:56;17.50;99.90
18460;DHT22;9359;50.932;6.924;2024-01-07T08:38:27;17.50;99.90
18460;DHT22;9359;50.932;6.924;2024-01-07T08:40:59;17.50;99.90
18460;DHT22;9359;50.932;6.924;2024-01-07T08:43:29;17.50;99.90
18460;DHT22;9359;50.932;6.924;2024-01-07T08:46:00;17.60;99.90
18460;DHT22;9359;50.932;6.924;2024-01-07T08:48:30;17.60;99.90
18460;DHT22;9359;50.932;6.924;2024-01-07T08:51:01;17.60;99.90
18460;DHT22;9359;50.932;6.924;2024-01-07T08:53:31;17.60;99.90
18460;DHT22;9359;50.932;6.924;2024-01-07T08:56:25;17.70;99.90
18460;DHT22;9359;50.932;6.924;2024-01-07T08:58:55;17.70;99.90
18460;DHT22;9359;50.932;6.924;2024-01-07T09:01:26;17.70;99.90
18460;DHT22;9359;50.932;6.924;2024-01-07T09:03:57;17.70;99.90
18460;DHT22;9359;50.932;6.924;2024-01-07T09:06:27;17.70;99.90
18460;DHT22;9359;50.932;6.924;2024-01-07T09:08:58;17.70;99.90
18460;DHT22;9359;50.932;6.924;2024-01-07T09:11:30;17.70;99.90
18460;DHT22;9359;50.932;6.924;2024-01-07T09:14:01;17.80;99.90
18460;DHT22;9359;50.932;6.924;2024-01-07T09:16:32;17.80;99.90
18460;DHT22;9359;50.932;6.924;2024-01-07T09:19:02;17.80;99.90
18460;DHT22;9359;50.932;6.924;2024-01-07T09:21:32;17.80;99.90
18460;DHT22;9359;50.932;6.924;2024-01-07T09:24:03;17.90;99.90
18460;DHT22;9359;50.932;6.924;2024-01-07T09:26:36;17.80;99.90
18460;DHT22;9359;50.932;6.924;2024-01-07T09:29:07;17.90;99.90
18460;DHT22;9359;50.932;6.924;2024-01-07T09:31:38;17.90;99.90
18460;DHT22;9359;50.932;6.924;2024-01-07T09:34:08;18.00;99.90
18460;DHT22;9359;50.932;6.924;2024-01-07T09:36:39;17.90;99.90
18460;DHT22;9359;50.932;6.924;2024-01-07T09:39:09;18.00;99.90
18460;DHT22;9359;50.932;6.924;2024-01-07T09:41:42;18.00;99.90
18460;DHT22;9359;50.932;6.924;2024-01-07T09:44:13;18.00;99.90
18460;DHT22;9359;50.932;6.924;2024-01-07T09:46:44;18.10;99.90
18460;DHT22;9359;50.932;6.924;2024-01-07T09:49:19;18.10;99.90
18460;DHT22;9359;50.932;6.924;2024-01-07T09:51:51;18.10;99.90
18460;DHT22;9359;50.932;6.924;2024-01-07T09:54:24;18.10;99.90
18460;DHT22;9359;50.932;6.924;2024-01-07T09:57:00;18.20;99.90
18460;DHT22;9359;50.932;6.924;2024-01-07T09:59:31;18.20;99.90
18460;DHT22;9359;50.932;6.924;2024-01-07T10:02:01;18.20;99.90
18460;DHT22;9359;50.932;6.924;2024-01-07T10:04:32;18.30;99.90
18460;DHT22;9359;50.932;6.924;2024-01-07T10:07:02;18.30;99.90
18460;DHT22;9359;50.932;6.924;2024-01-07T10:09:34;18.30;99.90
18460;DHT22;9359;50.932;6.924;2024-01-07T10:12:07;18.30;99.90
18460;DHT22;9359;50.932;6.924;2024-01-07T10:14:40;18.30;99.90
18460;DHT22;9359;50.932;6.924;2024-01-07T10:17:19;18.40;99.90
18460;DHT22;9359;50.932;6.924;2024-01-07T10:19:55;18.40;99.90
18460;DHT22;9359;50.932;6.924;2024-01-07T10:22:26;18.40;99.90
18460;DHT22;9359;50.932;6.924;2024-01-07T10:24:57;18.40;99.90
18460;DHT22;9359;50.932;6.924;2024-01-07T10:27:29;18.40;99.90
18460;DHT22;9359;50.932;6.924;2024-01-07T10:30:03;18.40;99.90
18460;DHT22;9359;50.932;6.924;2024-01-07T10:32:36;18.40;99.90
18460;DHT22;9359;50.932;6.924;2024-01-07T10:35:07;18.30;99.90
18460;DHT22;9359;50.932;6.924;2024-01-07T10:37:41;18.40;99.90
18460;DHT22;9359;50.932;6.924;2024-01-07T10:40:13;18.30;99.90
18460;DHT22;9359;50.932;6.924;2024-01-07T10:42:47;18.40;99.90
18460;DHT22;9359;50.932;6.924;2024-01-07T10:45:18;18.30;99.90
18460;DHT22;9359;50.932;6.924;2024-01-07T10:47:50;18.40;99.90
18460;DHT22;9359;50.932;6.924;2024-01-07T10:50:21;18.40;99.90
18460;DHT22;9359;50.932;6.924;2024-01-07T10:53:02;18.30;99.90
18460;DHT22;9359;50.932;6.924;2024-01-07T10:55:35;18.30;99.90
18460;DHT22;9359;50.932;6.924;2024-01-07T10:58:08;18.20;99.90
18460;DHT22;9359;50.932;6.924;2024-01-07T11:00:40;18.10;99.90
18460;DHT22;9359;50.932;6.924;2024-01-07T11:03:13;18.00;99.90
18460;DHT22;9359;50.932;6.924;2024-01-07T11:05:49;18.10;99.90
18460;DHT22;9359;50.932;6.924;2024-01-07T11:08:25;18.10;99.90
18460;DHT22;9359;50.932;6.924;2024-01-07T11:11:02;18.20;99.90
18460;DHT22;9359;50.932;6.924;2024-01-07T11:13:36;18.20;99.90
18460;DHT22;9359;50.932;6.924;2024-01-07T11:16:07;18.20;99.90
18460;DHT22;9359;50.932;6.924;2024-01-07T11:18:47;18.10;99.90
18460;DHT22;9359;50.932;6.924;2024-01-07T11:21:22;18.10;99.90
18460;DHT22;9359;50.932;6.924;2024-01-07T11:23:54;18.10;99.90
18460;DHT22;9359;50.932;6.924;2024-01-07T11:26:24;18.10;99.90
18460;DHT22;9359;50.932;6.924;2024-01-07T11:29:01;18.10;99.90
18460;DHT22;9359;50.932;6.924;2024-01-07T11:31:47;18.10;99.90
18460;DHT22;9359;50.932;6.924;2024-01-07T11:34:39;18.10;99.90
18460;DHT22;9359;50.932;6.924;2024-01-07T11:37:12;18.10;99.90
18460;DHT22;9359;50.932;6.924;2024-01-07T11:39:44;18.10;99.90
18460;DHT22;9359;50.932;6.924;2024-01-07T11:42:15;18.10;99.90
18460;DHT22;9359;50.932;6.924;2024-01-07T11:45:05;18.10;99.90
18460;DHT22;9359;50.932;6.924;2024-01-07T11:47:38;18.10;99.90
18460;DHT22;9359;50.932;6.924;2024-01-07T11:50:09;18.10;99.90
18460;DHT22;9359;50.932;6.924;2024-01-07T11:52:40;18.10;99.90
18460;DHT22;9359;50.932;6.924;2024-01-07T11:55:12;18.10;99.90
18460;DHT22;9359;50.932;6.924;2024-01-07T11:57:43;18.10;99.90
18460;DHT22;9359;50.932;6.924;2024-01-07T12:00:17;18.10;99.90
18460;DHT22;9359;50.932;6.924;2024-01-07T12:02:47;18.10;99.90
18460;DHT22;9359;50.932;6.924;2024-01-07T12:05:18;18.10;99.90
18460;DHT22;9359;50.932;6.924;2024-01-07T12:07:48;18.10;99.90
18460;DHT22;9359;50.932;6.924;2024-01-07T12:10:19;18.10;99.90
18460;DHT22;9359;50.932;6.924;2024-01-07T12:12:49;18.10;99.90
18460;DHT22;9359;50.932;6.924;2024-01-07T12:15:22;18.10;99.90
18460;DHT22;9359;50.932;6.924;2024-01-07T12:17:59;18.10;99.90
18460;DHT22;9359;50.932;6.924;2024-01-07T12:20:30;18.10;99.90
18460;DHT22;9359;50.932;6.924;2024-01-07T12:23:06;18.00;99.90
18460;DHT22;9359;50.932;6.924;2024-01-07T12:25:38;18.10;99.90
18460;DHT22;9359;50.932;6.924;2024-01-07T12:28:08;18.10;99.90
18460;DHT22;9359;50.932;6.924;2024-01-07T12:30:40;18.10;99.90
18460;DHT22;9359;50.932;6.924;2024-01-07T12:33:11;18.10;99.90
18460;DHT22;9359;50.932;6.924;2024-01-07T12:35:41;18.10;99.90
18460;DHT22;9359;50.932;6.924;2024-01-07T12:38:12;18.10;99.90
18460;DHT22;9359;50.932;6.924;2024-01-07T12:40:42;18.10;99.90
18460;DHT22;9359;50.932;6.924;2024-01-07T12:43:12;18.10;99.90
18460;DHT22;9359;50.932;6.924;2024-01-07T12:45:45;18.10;99.90
18460;DHT22;9359;50.932;6.924;2024-01-07T12:48:16;18.10;99.90
18460;DHT22;9359;50.932;6.924;2024-01-07T12:50:47;18.10;99.90
18460;DHT22;9359;50.932;6.924;2024-01-07T12:53:17;18.10;99.90
18460;DHT22;9359;50.932;6.924;2024-01-07T12:55:48;18.10;99.90
18460;DHT22;9359;50.932;6.924;2024-01-07T12:58:19;18.10;99.90
18460;DHT22;9359;50.932;6.924;2024-01-07T13:00:52;18.10;99.90
18460;DHT22;9359;50.932;6.924;2024-01-07T13:03:23;18.10;99.90
18460;DHT22;9359;50.932;6.924;2024-01-07T13:05:53;18.10;99.90
18460;DHT22;9359;50.932;6.924;2024-01-07T13:08:24;18.10;99.90
18460;DHT22;9359;50.932;6.924;2024-01-07T13:10:56;18.10;99.90
18460;DHT22;9359;50.932;6.924;2024-01-07T13:13:27;18.10;99.90
18460;DHT22;9359;50.932;6.924;2024-01-07T13:15:59;18.10;99.90
18460;DHT22;9359;50.932;6.924;2024-01-07T13:18:30;18.10;99.90
18460;DHT22;9359;50.932;6.924;2024-01-07T13:21:00;18.10;99.90
18460;DHT22;9359;50.932;6.924;2024-01-07T13:23:31;18.10;99.90
18460;DHT22;9359;50.932;6.924;2024-01-07T13:26:02;18.20;99.90
18460;DHT22;9359;50.932;6.924;2024-01-07T13:28:33;18.20;99.90
18460;DHT22;9359;50.932;6.924;2024-01-07T13:31:06;18.20;99.90
18460;DHT22;9359;50.932;6.924;2024-01-07T13:33:37;18.20;99.90
18460;DHT22;9359;50.932;6.924;2024-01-07T13:36:07;18.20;99.90
18460;DHT22;9359;50.932;6.924;2024-01-07T13:38:39;18.10;99.90
18460;DHT22;9359;50.932;6.924;2024-01-07T13:41:10;18.10;99.90
18460;DHT22;9359;50.932;6.924;2024-01-07T13:43:41;18.00;99.90
18460;DHT22;9359;50.932;6.924;2024-01-07T13:46:13;18.00;99.90
18460;DHT22;9359;50.932;6.924;2024-01-07T13:48:44;17.90;99.90
18460;DHT22;9359;50.932;6.924;2024-01-07T13:51:14;17.90;99.90
18460;DHT22;9359;50.932;6.924;2024-01-07T13:53:45;18.00;99.90
18460;DHT22;9359;50.932;6.924;2024-01-07T13:56:15;18.10;99.90
18460;DHT22;9359;50.932;6.924;2024-01-07T13:58:46;18.10;99.90
18460;DHT22;9359;50.932;6.924;2024-01-07T14:01:19;18.10;99.90
18460;DHT22;9359;50.932;6.924;2024-01-07T14:03:50;18.00;99.90
18460;DHT22;9359;50.932;6.924;2024-01-07T14:06:20;18.00;99.90
18460;DHT22;9359;50.932;6.924;2024-01-07T14:08:50;18.00;99.90
18460;DHT22;9359;50.932;6.924;2024-01-07T14:11:21;18.00;99.90
18460;DHT22;9359;50.932;6.924;2024-01-07T14:13:52;18.00;99.90
18460;DHT22;9359;50.932;6.924;2024-01-07T14:16:24;18.00;99.90
18460;DHT22;9359;50.932;6.924;2024-01-07T14:18:55;18.00;99.90
18460;DHT22;9359;50.932;6.924;2024-01-07T14:21:26;18.00;99.90
18460;DHT22;9359;50.932;6.924;2024-01-07T14:23:58;18.00;99.90
18460;DHT22;9359;50.932;6.924;2024-01-07T14:26:29;18.00;99.90
18460;DHT22;9359;50.932;6.924;2024-01-07T14:28:59;18.00;99.90
18460;DHT22;9359;50.932;6.924;2024-01-07T14:31:33;18.00;99.90
18460;DHT22;9359;50.932;6.924;2024-01-07T14:34:03;17.90;99.90
18460;DHT22;9359;50.932;6.924;2024-01-07T14:36:34;18.00;99.90
18460;DHT22;9359;50.932;6.924;2024-01-07T14:39:04;18.00;99.90
18460;DHT22;9359;50.932;6.924;2024-01-07T14:41:36;17.90;99.90
18460;DHT22;9359;50.932;6.924;2024-01-07T14:44:06;17.90;99.90
18460;DHT22;9359;50.932;6.924;2024-01-07T14:46:39;17.90;99.90
18460;DHT22;9359;50.932;6.924;2024-01-07T14:49:09;17.90;99.90
18460;DHT22;9359;50.932;6.924;2024-01-07T14:51:40;17.80;99.90
18460;DHT22;9359;50.932;6.924;2024-01-07T14:54:10;17.80;99.90
18460;DHT22;9359;50.932;6.924;2024-01-07T14:56:41;17.90;99.90
18460;DHT22;9359;50.932;6.924;2024-01-07T14:59:11;17.90;99.90
18460;DHT22;9359;50.932;6.924;2024-01-07T15:01:43;17.90;99.90
18460;DHT22;9359;50.932;6.924;2024-01-07T15:04:14;17.90;99.90
18460;DHT22;9359;50.932;6.924;2024-01-07T15:06:44;17.90;99.90
18460;DHT22;9359;50.932;6.924;2024-01-07T15:09:16;18.00;99.90
18460;DHT22;9359;50.932;6.924;2024-01-07T15:11:48;18.00;99.90
18460;DHT22;9359;50.932;6.924;2024-01-07T15:14:20;18.00;99.90
18460;DHT22;9359;50.932;6.924;2024-01-07T15:16:52;18.00;99.90
18460;DHT22;9359;50.932;6.924;2024-01-07T15:19:23;18.00;99.90
18460;DHT22;9359;50.932;6.924;2024-01-07T15:21:53;18.00;99.90
18460;DHT22;9359;50.932;6.924;2024-01-07T15:24:23;18.00;99.90
18460;DHT22;9359;50.932;6.924;2024-01-07T15:26:54;18.00;99.90
18460;DHT22;9359;50.932;6.924;2024-01-07T15:29:25;18.00;99.90
18460;DHT22;9359;50.932;6.924;2024-01-07T15:31:57;18.10;99.90
18460;DHT22;9359;50.932;6.924;2024-01-07T15:34:27;18.10;99.90
18460;DHT22;9359;50.932;6.924;2024-01-07T15:36:58;18.10;99.90
18460;DHT22;9359;50.932;6.924;2024-01-07T15:39:28;18.10;99.90
18460;DHT22;9359;50.932;6.924;2024-01-07T15:41:59;18.10;99.90
18460;DHT22;9359;50.932;6.924;2024-01-07T15:44:30;18.10;99.90
18460;DHT22;9359;50.932;6.924;2024-01-07T15:47:03;18.00;99.90
18460;DHT22;9359;50.932;6.924;2024-01-07T15:49:33;18.00;99.90
18460;DHT22;9359;50.932;6.924;2024-01-07T15:52:04;18.10;99.90
18460;DHT22;9359;50.932;6.924;2024-01-07T15:54:34;18.10;99.90
18460;DHT22;9359;50.932;6.924;2024-01-07T15:57:05;18.10;99.90
18460;DHT22;9359;50.932;6.924;2024-01-07T15:59:36;18.00;99.90
18460;DHT22;9359;50.932;6.924;2024-01-07T16:02:12;18.00;99.90
18460;DHT22;9359;50.932;6.924;2024-01-07T16:04:42;18.00;99.90
18460;DHT22;9359;50.932;6.924;2024-01-07T16:07:13;18.00;99.90
18460;DHT22;9359;50.932;6.924;2024-01-07T16:09:44;18.00;99.90
18460;DHT22;9359;50.932;6.924;2024-01-07T16:12:15;18.00;99.90